Time;durP1;ratioP1;P1;durP2;ratioP2;P2;SDS_P1;SDS_P2;PMS_P1;PMS_P2;Temp;Humidity;BMP_temperature;BMP_pressure;BME280_temperature;BME280_humidity;BME280_pressure;Samples;Min_cycle;Max_cycle;Signal;HPM_P1;HPM_P2
2022/06/13 00:02:03;;;;;;;6.25;3.70;;;;;;;;;;5056235;28;20499;-70
2022/06/13 00:04:29;;;;;;;6.10;3.50;;;;;;;;;;5055664;28;20045;-71
2022/06/13 00:06:55;;;;;;;4.25;3.70;;;;;;;;;;5055615;28;20033;-71
2022/06/13 00:09:21;;;;;;;4.00;3.63;;;;;;;;;;5055758;28;20041;-71
2022/06/13 00:11:47;;;;;;;3.90;3.50;;;;;;;;;;5055405;28;20086;-71
2022/06/13 00:14:13;;;;;;;4.38;3.97;;;;;;;;;;5055157;28;20407;-71
2022/06/13 00:16:40;;;;;;;4.20;3.72;;;;;;;;;;5055118;28;20029;-71
2022/06/13 00:19:06;;;;;;;5.75;3.92;;;;;;;;;;5055314;28;20463;-71
2022/06/13 00:21:34;;;;;;;5.40;3.90;;;;;;;;;;5055344;28;20048;-71
2022/06/13 00:24:01;;;;;;;5.30;3.88;;;;;;;;;;5055253;28;20044;-71
2022/06/13 00:26:29;;;;;;;4.90;3.78;;;;;;;;;;5055020;28;20036;-71
2022/06/13 00:28:55;;;;;;;4.15;3.75;;;;;;;;;;5054884;28;20114;-71
2022/06/13 00:31:21;;;;;;;4.05;3.65;;;;;;;;;;5055531;28;20529;-71
2022/06/13 00:33:47;;;;;;;4.10;3.60;;;;;;;;;;5055076;28;20479;-71
2022/06/13 00:36:14;;;;;;;4.25;3.83;;;;;;;;;;5055003;28;20040;-71
2022/06/13 00:38:40;;;;;;;3.95;3.13;;;;;;;;;;5055045;28;20041;-71
2022/06/13 00:41:07;;;;;;;3.78;3.40;;;;;;;;;;5055160;28;20040;-71
2022/06/13 00:43:34;;;;;;;4.88;3.70;;;;;;;;;;5054581;28;20040;-71
2022/06/13 00:46:01;;;;;;;4.93;3.50;;;;;;;;;;5055133;28;20037;-71
2022/06/13 00:48:28;;;;;;;4.55;3.40;;;;;;;;;;5054619;28;20205;-71
2022/06/13 00:50:57;;;;;;;5.65;3.78;;;;;;;;;;5054806;28;20041;-71
2022/06/13 00:53:25;;;;;;;3.67;3.30;;;;;;;;;;5054973;28;20132;-71
2022/06/13 00:55:54;;;;;;;6.88;3.50;;;;;;;;;;5054527;28;20475;-71
2022/06/13 00:58:21;;;;;;;5.55;3.28;;;;;;;;;;5053536;28;20115;-71
2022/06/13 01:00:49;;;;;;;6.63;3.55;;;;;;;;;;5053237;28;20158;-71
2022/06/13 01:03:15;;;;;;;3.72;3.42;;;;;;;;;;5622576;22;20602;-71
2022/06/13 01:05:42;;;;;;;3.60;3.30;;;;;;;;;;5074669;28;20082;-71
2022/06/13 01:08:09;;;;;;;3.63;3.33;;;;;;;;;;5074629;28;20116;-71
2022/06/13 01:13:22;;;;;;;3.15;2.85;;;;;;;;;;5073855;28;20051;-71
2022/06/13 01:15:57;;;;;;;4.13;3.35;;;;;;;;;;5072956;28;20452;-71
2022/06/13 01:18:41;;;;;;;4.97;3.30;;;;;;;;;;5072853;28;20542;-71
2022/06/13 01:21:12;;;;;;;6.45;3.70;;;;;;;;;;5072604;28;20041;-71
2022/06/13 01:23:38;;;;;;;3.90;3.50;;;;;;;;;;5072400;28;20075;-71
2022/06/13 01:26:20;;;;;;;5.18;3.45;;;;;;;;;;5073175;28;20526;-71
2022/06/13 01:29:06;;;;;;;3.80;3.50;;;;;;;;;;5072590;28;20028;-71
2022/06/13 01:31:40;;;;;;;5.30;3.40;;;;;;;;;;5073148;28;20040;-71
2022/06/13 01:34:19;;;;;;;4.38;3.92;;;;;;;;;;5072420;28;20032;-71
2022/06/13 01:36:45;;;;;;;4.53;4.10;;;;;;;;;;5072826;28;20051;-71
2022/06/13 01:39:29;;;;;;;5.38;3.85;;;;;;;;;;5072929;28;20097;-71
2022/06/13 01:42:08;;;;;;;6.40;3.78;;;;;;;;;;5072761;28;20047;-71
2022/06/13 01:44:46;;;;;;;5.63;3.50;;;;;;;;;;5073174;28;20045;-70
2022/06/13 01:47:14;;;;;;;4.57;3.60;;;;;;;;;;5073059;28;20041;-71
2022/06/13 01:49:46;;;;;;;4.35;3.58;;;;;;;;;;5072757;28;20048;-71
2022/06/13 01:52:19;;;;;;;5.65;3.83;;;;;;;;;;5073020;28;20040;-71
2022/06/13 01:55:03;;;;;;;3.58;3.28;;;;;;;;;;5073024;28;20033;-71
2022/06/13 01:57:42;;;;;;;4.72;3.50;;;;;;;;;;5072880;28;20119;-70
2022/06/13 02:00:09;;;;;;;3.85;3.45;;;;;;;;;;5072906;28;20040;-71
2022/06/13 02:02:39;;;;;;;3.40;3.10;;;;;;;;;;5072506;28;20048;-71
2022/06/13 02:05:28;;;;;;;4.80;3.63;;;;;;;;;;5072991;28;20044;-71
2022/06/13 02:08:24;;;;;;;3.90;3.42;;;;;;;;;;5062698;28;20044;-71
2022/06/13 02:11:01;;;;;;;4.15;3.28;;;;;;;;;;5055820;28;20098;-71
2022/06/13 02:13:38;;;;;;;3.97;3.42;;;;;;;;;;5072807;28;20045;-71
2022/06/13 02:16:27;;;;;;;4.10;3.28;;;;;;;;;;5072747;28;20153;-71
2022/06/13 02:18:53;;;;;;;4.80;3.45;;;;;;;;;;5062028;28;20032;-71
2022/06/13 02:21:19;;;;;;;5.93;3.50;;;;;;;;;;5072563;28;20045;-70
2022/06/13 02:23:51;;;;;;;5.88;3.13;;;;;;;;;;5073004;28;20483;-71
2022/06/13 02:26:21;;;;;;;4.80;3.35;;;;;;;;;;5072665;28;20089;-71
2022/06/13 02:28:59;;;;;;;3.63;3.20;;;;;;;;;;5072852;28;20051;-71
2022/06/13 02:31:35;;;;;;;7.38;3.00;;;;;;;;;;5072877;28;20052;-71
2022/06/13 02:34:11;;;;;;;4.65;2.65;;;;;;;;;;5072608;28;20145;-71
2022/06/13 02:36:50;;;;;;;3.50;2.85;;;;;;;;;;5076050;28;20510;-71
2022/06/13 02:39:37;;;;;;;3.63;2.85;;;;;;;;;;5076343;28;20101;-71
2022/06/13 02:42:08;;;;;;;4.22;3.35;;;;;;;;;;5076148;28;20417;-72
2022/06/13 02:44:56;;;;;;;3.53;3.05;;;;;;;;;;5075767;28;20048;-72
2022/06/13 02:47:23;;;;;;;3.55;3.25;;;;;;;;;;5075962;28;20040;-72
2022/06/13 02:49:53;;;;;;;4.63;3.00;;;;;;;;;;5076060;28;20043;-72
2022/06/13 02:52:19;;;;;;;;;;;;;;;;;;5076424;28;20044;-72
2022/06/13 02:54:54;;;;;;;4.80;3.45;;;;;;;;;;5075668;28;19954;-72
2022/06/13 02:57:38;;;;;;;5.50;2.83;;;;;;;;;;5075697;28;20042;-72
2022/06/13 03:00:04;;;;;;;4.22;3.63;;;;;;;;;;5075639;28;20050;-72
2022/06/13 03:02:39;;;;;;;5.30;3.78;;;;;;;;;;5075530;28;20052;-72
2022/06/13 03:05:28;;;;;;;3.55;3.22;;;;;;;;;;5075794;28;20482;-72
2022/06/13 03:08:03;;;;;;;5.20;3.67;;;;;;;;;;5065045;28;20044;-72
2022/06/13 03:10:36;;;;;;;5.07;3.17;;;;;;;;;;5075329;28;20127;-72
2022/06/13 03:13:06;;;;;;;5.30;3.75;;;;;;;;;;5075536;28;20441;-72
2022/06/13 03:15:38;;;;;;;6.15;4.05;;;;;;;;;;5076012;28;20048;-72
2022/06/13 03:18:27;;;;;;;5.05;3.65;;;;;;;;;;5075144;28;20086;-72
2022/06/13 03:21:10;;;;;;;5.93;3.92;;;;;;;;;;5064703;28;20079;-71
2022/06/13 03:23:41;;;;;;;6.20;4.32;;;;;;;;;;5075665;28;20071;-71
2022/06/13 03:26:10;;;;;;;5.95;4.10;;;;;;;;;;5075418;28;20045;-71
2022/06/13 03:28:47;;;;;;;6.95;4.22;;;;;;;;;;5075417;28;20041;-72
2022/06/13 03:31:17;;;;;;;6.53;4.90;;;;;;;;;;5073178;28;20140;-72
2022/06/13 03:33:45;;;;;;;6.65;5.15;;;;;;;;;;5070598;28;20068;-72
2022/06/13 03:36:23;;;;;;;6.43;5.05;;;;;;;;;;5058586;28;20052;-71
2022/06/13 03:38:56;;;;;;;5.72;5.10;;;;;;;;;;5054986;28;20037;-71
2022/06/13 03:41:23;;;;;;;6.13;5.30;;;;;;;;;;5055168;28;20052;-72
2022/06/13 03:43:53;;;;;;;6.72;5.97;;;;;;;;;;5056726;28;20138;-72
2022/06/13 03:46:37;;;;;;;6.88;6.07;;;;;;;;;;5072907;28;20127;-72
2022/06/13 03:49:10;;;;;;;8.43;6.47;;;;;;;;;;5063335;28;20087;-72
2022/06/13 03:51:42;;;;;;;9.05;6.45;;;;;;;;;;5072641;28;20057;-72
2022/06/13 03:54:24;;;;;;;10.27;5.53;;;;;;;;;;5066922;28;20039;-72
2022/06/13 03:57:08;;;;;;;7.80;6.07;;;;;;;;;;5056402;28;20079;-75
2022/06/13 03:59:49;;;;;;;8.77;6.30;;;;;;;;;;5073330;28;20091;-74
2022/06/13 04:02:17;;;;;;;9.88;6.50;;;;;;;;;;5059785;28;20103;-74
2022/06/13 04:04:48;;;;;;;8.35;6.15;;;;;;;;;;5065579;28;20519;-71
2022/06/13 04:07:15;;;;;;;7.20;6.22;;;;;;;;;;5057484;28;20028;-71
2022/06/13 04:09:43;;;;;;;7.47;6.60;;;;;;;;;;5066136;28;20040;-71
2022/06/13 04:12:13;;;;;;;7.00;6.32;;;;;;;;;;5061410;28;20098;-71
2022/06/13 04:14:48;;;;;;;9.55;5.85;;;;;;;;;;5068258;28;20052;-71
2022/06/13 04:17:23;;;;;;;8.60;5.80;;;;;;;;;;5054040;28;20118;-71
2022/06/13 04:20:15;;;;;;;12.25;5.90;;;;;;;;;;5054981;28;20576;-70
2022/06/13 04:22:55;;;;;;;7.18;5.80;;;;;;;;;;5019562;28;20075;-71
2022/06/13 04:25:26;;;;;;;5.35;4.85;;;;;;;;;;5060741;28;20037;-71
2022/06/13 04:28:12;;;;;;;11.25;5.35;;;;;;;;;;5072129;28;20037;-71
2022/06/13 04:30:41;;;;;;;5.18;4.35;;;;;;;;;;5057280;28;20055;-71
2022/06/13 04:33:07;;;;;;;5.82;4.95;;;;;;;;;;5060673;28;20086;-71
2022/06/13 04:35:34;;;;;;;7.60;4.45;;;;;;;;;;5053702;28;20040;-71
2022/06/13 04:38:02;;;;;;;7.07;4.10;;;;;;;;;;5053544;28;20040;-71
2022/06/13 04:40:29;;;;;;;6.03;4.10;;;;;;;;;;5053794;28;20049;-70
2022/06/13 04:42:56;;;;;;;6.78;3.83;;;;;;;;;;5053809;28;20051;-71
2022/06/13 04:45:26;;;;;;;10.50;4.15;;;;;;;;;;5053709;28;20082;-71
2022/06/13 04:47:54;;;;;;;6.47;3.53;;;;;;;;;;5068806;28;20044;-71
2022/06/13 04:50:40;;;;;;;8.13;3.60;;;;;;;;;;5067709;28;20518;-71
2022/06/13 04:53:09;;;;;;;10.13;3.78;;;;;;;;;;5061602;28;20222;-71
2022/06/13 04:55:41;;;;;;;12.00;5.60;;;;;;;;;;5062358;28;20049;-71
2022/06/13 04:58:26;;;;;;;10.75;5.38;;;;;;;;;;5072502;28;20550;-71
2022/06/13 05:00:55;;;;;;;13.98;5.93;;;;;;;;;;5073113;28;20059;-71
2022/06/13 05:03:24;;;;;;;10.23;5.18;;;;;;;;;;5072909;28;20057;-72
2022/06/13 05:05:52;;;;;;;8.18;5.25;;;;;;;;;;5073746;28;20123;-71
2022/06/13 05:08:22;;;;;;;9.18;4.88;;;;;;;;;;5072292;28;20036;-70
2022/06/13 05:10:49;;;;;;;12.15;5.43;;;;;;;;;;5066518;28;20127;-71
2022/06/13 05:13:16;;;;;;;10.82;5.75;;;;;;;;;;5065727;28;20044;-71
2022/06/13 05:15:43;;;;;;;9.73;5.90;;;;;;;;;;5063245;28;20033;-70
2022/06/13 05:18:10;;;;;;;12.88;7.07;;;;;;;;;;5065827;28;20067;-71
2022/06/13 05:20:36;;;;;;;12.52;7.90;;;;;;;;;;5073178;28;20071;-71
2022/06/13 05:23:28;;;;;;;10.75;6.70;;;;;;;;;;5073339;28;20059;-71
2022/06/13 05:25:55;;;;;;;13.80;7.45;;;;;;;;;;5068934;28;20036;-70
2022/06/13 05:28:23;;;;;;;13.52;6.53;;;;;;;;;;5064171;28;20048;-71
2022/06/13 05:30:51;;;;;;;11.82;7.40;;;;;;;;;;5055493;28;20052;-71
2022/06/13 05:33:19;;;;;;;11.23;7.15;;;;;;;;;;5053219;28;20045;-73
2022/06/13 05:35:45;;;;;;;14.38;6.72;;;;;;;;;;5053044;28;20537;-72
2022/06/13 05:38:17;;;;;;;11.60;6.22;;;;;;;;;;5067208;28;20731;-72
2022/06/13 05:40:44;;;;;;;7.72;4.85;;;;;;;;;;5073375;28;20045;-72
2022/06/13 05:43:11;;;;;;;7.85;4.53;;;;;;;;;;5072880;28;20036;-73
2022/06/13 05:45:38;;;;;;;7.78;4.53;;;;;;;;;;5073079;28;20048;-73
2022/06/13 05:48:05;;;;;;;9.65;4.30;;;;;;;;;;5073163;28;20098;-73
2022/06/13 05:50:33;;;;;;;7.38;4.57;;;;;;;;;;5072998;28;20469;-73
2022/06/13 05:52:59;;;;;;;8.38;4.95;;;;;;;;;;5073394;28;20495;-72
2022/06/13 05:55:25;;;;;;;9.75;5.32;;;;;;;;;;5072831;28;20044;-72
2022/06/13 05:57:51;;;;;;;8.60;5.28;;;;;;;;;;5072793;28;20075;-72
2022/06/13 06:00:27;;;;;;;8.88;4.80;;;;;;;;;;5072735;28;20055;-72
2022/06/13 06:02:53;;;;;;;9.10;5.00;;;;;;;;;;5072827;28;20037;-73
2022/06/13 06:05:19;;;;;;;10.23;4.80;;;;;;;;;;5072881;28;20127;-72
2022/06/13 06:07:46;;;;;;;7.90;5.15;;;;;;;;;;5072837;28;20072;-72
2022/06/13 06:10:19;;;;;;;8.60;5.07;;;;;;;;;;5074903;28;20299;-73
2022/06/13 06:12:45;;;;;;;6.55;4.82;;;;;;;;;;5076659;28;20052;-73
2022/06/13 06:15:12;;;;;;;7.30;3.80;;;;;;;;;;5076279;28;20036;-73
2022/06/13 06:17:38;;;;;;;5.72;3.20;;;;;;;;;;5076353;28;20127;-73
2022/06/13 06:20:05;;;;;;;7.40;3.45;;;;;;;;;;5058343;28;20415;-73
2022/06/13 06:22:31;;;;;;;8.55;3.50;;;;;;;;;;5076116;28;20127;-72
2022/06/13 06:24:57;;;;;;;5.25;3.03;;;;;;;;;;5076356;28;20487;-72
2022/06/13 06:27:23;;;;;;;7.95;2.88;;;;;;;;;;5075953;28;20064;-72
2022/06/13 06:29:50;;;;;;;4.43;2.83;;;;;;;;;;5076188;28;20123;-72
2022/06/13 06:32:16;;;;;;;5.28;2.53;;;;;;;;;;5076233;28;20093;-72
2022/06/13 06:34:42;;;;;;;5.65;2.40;;;;;;;;;;5076192;28;20175;-72
2022/06/13 06:37:08;;;;;;;4.57;2.40;;;;;;;;;;5075897;28;20044;-73
2022/06/13 06:39:34;;;;;;;6.03;2.45;;;;;;;;;;5076025;28;20044;-73
2022/06/13 06:42:00;;;;;;;4.38;2.58;;;;;;;;;;5075827;28;20115;-73
2022/06/13 06:44:26;;;;;;;6.60;2.30;;;;;;;;;;5076218;28;20040;-73
2022/06/13 06:46:53;;;;;;;4.70;1.90;;;;;;;;;;5075572;28;20036;-72
2022/06/13 06:49:19;;;;;;;4.35;2.40;;;;;;;;;;5075498;28;20033;-73
2022/06/13 06:51:46;;;;;;;9.40;2.83;;;;;;;;;;5075883;28;20071;-73
2022/06/13 06:59:54;;;;;;;3.83;1.88;;;;;;;;;;5075155;28;20547;-73
2022/06/13 07:02:23;;;;;;;3.95;1.85;;;;;;;;;;5075743;28;20052;-73
2022/06/13 07:05:00;;;;;;;2.50;1.80;;;;;;;;;;5075180;28;20063;-73
2022/06/13 07:07:26;;;;;;;1.83;1.42;;;;;;;;;;5075962;28;20036;-73
2022/06/13 07:09:53;;;;;;;3.50;2.00;;;;;;;;;;5075876;28;20063;-73
2022/06/13 07:12:19;;;;;;;4.85;2.00;;;;;;;;;;5075514;28;20127;-73
2022/06/13 07:14:45;;;;;;;3.13;1.92;;;;;;;;;;5075976;28;20074;-73
2022/06/13 07:17:13;;;;;;;3.33;1.80;;;;;;;;;;5075673;28;20041;-73
2022/06/13 07:19:40;;;;;;;3.08;1.70;;;;;;;;;;5075007;28;20566;-73
2022/06/13 07:22:07;;;;;;;5.75;1.80;;;;;;;;;;5074452;28;20039;-73
2022/06/13 07:24:34;;;;;;;6.18;1.65;;;;;;;;;;5075651;28;20044;-73
2022/06/13 07:27:00;;;;;;;4.07;1.95;;;;;;;;;;5075245;28;20036;-73
2022/06/13 07:29:27;;;;;;;3.45;1.67;;;;;;;;;;5075141;28;20049;-73
2022/06/13 07:31:57;;;;;;;2.70;1.65;;;;;;;;;;5075451;28;20064;-73
2022/06/13 07:34:26;;;;;;;4.82;1.88;;;;;;;;;;5074652;28;20032;-73
2022/06/13 07:36:53;;;;;;;3.03;1.95;;;;;;;;;;5075342;28;20044;-73
2022/06/13 07:39:19;;;;;;;4.03;1.83;;;;;;;;;;5075212;28;20039;-73
2022/06/13 07:41:46;;;;;;;3.90;1.50;;;;;;;;;;5074808;28;20470;-73
2022/06/13 07:44:20;;;;;;;3.45;1.70;;;;;;;;;;5075315;28;20113;-73
2022/06/13 07:46:46;;;;;;;3.83;1.50;;;;;;;;;;5074823;28;20036;-73
2022/06/13 07:49:13;;;;;;;3.22;1.60;;;;;;;;;;5074571;28;20411;-72
2022/06/13 07:51:39;;;;;;;2.78;2.08;;;;;;;;;;5075027;28;20040;-73
2022/06/13 07:54:06;;;;;;;3.47;2.17;;;;;;;;;;5075031;28;20053;-73
2022/06/13 07:56:32;;;;;;;4.95;2.22;;;;;;;;;;5074933;28;20076;-73
2022/06/13 07:58:59;;;;;;;4.35;2.22;;;;;;;;;;5074626;28;20040;-73
2022/06/13 08:01:26;;;;;;;2.97;2.13;;;;;;;;;;5074801;28;20055;-73
2022/06/13 08:03:52;;;;;;;3.60;1.88;;;;;;;;;;5074322;28;20052;-73
2022/06/13 08:06:19;;;;;;;3.28;1.70;;;;;;;;;;5074132;28;20494;-73
2022/06/13 08:08:46;;;;;;;2.08;1.88;;;;;;;;;;5074081;28;20100;-73
2022/06/13 08:11:15;;;;;;;7.18;2.50;;;;;;;;;;5074361;28;20048;-73
2022/06/13 08:13:41;;;;;;;3.42;1.85;;;;;;;;;;5074435;28;20052;-73
2022/06/13 08:16:08;;;;;;;5.57;1.98;;;;;;;;;;5074193;28;20119;-73
2022/06/13 08:18:34;;;;;;;4.15;1.73;;;;;;;;;;5073675;28;20054;-73
2022/06/13 08:21:00;;;;;;;3.58;1.98;;;;;;;;;;5074101;28;20048;-73
2022/06/13 08:23:27;;;;;;;4.05;1.83;;;;;;;;;;5073893;28;20525;-73
2022/06/13 08:25:53;;;;;;;5.32;1.63;;;;;;;;;;5074029;28;20043;-73
2022/06/13 08:28:19;;;;;;;4.45;1.90;;;;;;;;;;5074044;28;20036;-72
2022/06/13 08:30:51;;;;;;;4.78;1.85;;;;;;;;;;5073765;28;20040;-73
2022/06/13 08:33:18;;;;;;;5.75;2.35;;;;;;;;;;5073521;28;20051;-73
2022/06/13 08:35:44;;;;;;;3.67;2.10;;;;;;;;;;5073673;28;20524;-73
2022/06/13 08:38:10;;;;;;;3.92;1.95;;;;;;;;;;5073903;28;20048;-73
2022/06/13 08:40:54;;;;;;;3.38;1.88;;;;;;;;;;5073460;28;20326;-73
2022/06/13 08:43:21;;;;;;;4.65;1.92;;;;;;;;;;5073889;28;20049;-73
2022/06/13 08:45:49;;;;;;;3.75;1.90;;;;;;;;;;5073448;28;20044;-73
2022/06/13 08:48:15;;;;;;;4.72;1.88;;;;;;;;;;5073491;28;20066;-73
2022/06/13 08:50:53;;;;;;;5.93;2.70;;;;;;;;;;5073377;28;20052;-73
2022/06/13 08:53:20;;;;;;;3.50;2.15;;;;;;;;;;5073247;28;20036;-73
2022/06/13 08:55:47;;;;;;;4.53;1.88;;;;;;;;;;5073296;28;20040;-73
2022/06/13 08:58:35;;;;;;;4.90;1.98;;;;;;;;;;5073544;28;20028;-73
2022/06/13 09:01:04;;;;;;;4.88;2.00;;;;;;;;;;5073468;28;20101;-73
2022/06/13 09:03:37;;;;;;;6.90;1.88;;;;;;;;;;5072661;28;20095;-73
2022/06/13 09:06:10;;;;;;;4.82;2.28;;;;;;;;;;5073183;28;20095;-73
2022/06/13 09:08:59;;;;;;;5.90;2.22;;;;;;;;;;5072992;28;20403;-73
2022/06/13 09:11:37;;;;;;;5.38;2.67;;;;;;;;;;5060183;28;20078;-73
2022/06/13 09:14:07;;;;;;;7.15;3.13;;;;;;;;;;5072920;28;20411;-73
2022/06/13 09:16:35;;;;;;;5.55;3.10;;;;;;;;;;5073236;28;20032;-73
2022/06/13 09:19:07;;;;;;;7.45;3.38;;;;;;;;;;5072856;28;20040;-73
2022/06/13 09:21:36;;;;;;;5.28;2.92;;;;;;;;;;5073143;28;20059;-73
2022/06/13 09:24:08;;;;;;;8.30;3.38;;;;;;;;;;5073375;28;20062;-73
2022/06/13 09:26:46;;;;;;;5.68;3.33;;;;;;;;;;5073246;28;20531;-73
2022/06/13 09:29:18;;;;;;;8.82;3.20;;;;;;;;;;5072908;28;20037;-73
2022/06/13 09:31:46;;;;;;;7.47;3.35;;;;;;;;;;5072979;28;20051;-73
2022/06/13 09:34:18;;;;;;;8.23;3.53;;;;;;;;;;5072772;28;20051;-73
2022/06/13 09:36:50;;;;;;;7.32;3.70;;;;;;;;;;5072850;28;20529;-73
2022/06/13 09:39:18;;;;;;;10.30;3.85;;;;;;;;;;5072827;28;20356;-73
2022/06/13 09:42:03;;;;;;;6.70;2.97;;;;;;;;;;5072668;28;20055;-73
2022/06/13 09:44:35;;;;;;;6.75;3.92;;;;;;;;;;5074598;28;20071;-73
2022/06/13 09:47:08;;;;;;;12.48;3.67;;;;;;;;;;5077134;28;20037;-73
2022/06/13 09:49:40;;;;;;;7.20;3.28;;;;;;;;;;5076973;28;20075;-73
2022/06/13 09:52:22;;;;;;;9.70;4.43;;;;;;;;;;5077048;28;20064;-73
2022/06/13 09:54:59;;;;;;;8.93;3.45;;;;;;;;;;5076916;28;20048;-73
2022/06/13 09:57:40;;;;;;;8.27;3.33;;;;;;;;;;5076710;28;20115;-73
2022/06/13 10:00:09;;;;;;;6.43;3.05;;;;;;;;;;5076878;28;20048;-73
2022/06/13 10:02:44;;;;;;;8.30;3.10;;;;;;;;;;5076746;28;20089;-73
2022/06/13 10:05:16;;;;;;;12.80;3.05;;;;;;;;;;5077303;28;20083;-73
2022/06/13 10:07:47;;;;;;;8.23;3.53;;;;;;;;;;5076948;28;20033;-73
2022/06/13 10:10:32;;;;;;;8.38;3.15;;;;;;;;;;5077059;28;20049;-73
2022/06/13 10:13:01;;;;;;;5.90;2.88;;;;;;;;;;5076841;28;20110;-73
2022/06/13 10:15:49;;;;;;;6.43;3.40;;;;;;;;;;5076869;28;20253;-73
2022/06/13 10:18:18;;;;;;;5.45;2.97;;;;;;;;;;5076594;28;20150;-73
2022/06/13 10:20:48;;;;;;;4.70;2.58;;;;;;;;;;5076716;28;20044;-73
2022/06/13 10:23:17;;;;;;;7.25;3.42;;;;;;;;;;5076637;28;20045;-73
2022/06/13 10:26:04;;;;;;;6.70;2.90;;;;;;;;;;5076409;28;20071;-73
2022/06/13 10:28:30;;;;;;;5.80;2.70;;;;;;;;;;5035797;28;20413;-74
2022/06/13 10:31:03;;;;;;;5.18;2.90;;;;;;;;;;5053731;28;20124;-74
2022/06/13 10:33:39;;;;;;;6.25;2.70;;;;;;;;;;5049010;28;20048;-75
2022/06/13 10:36:44;;;;;;;6.00;2.88;;;;;;;;;;5054113;28;20491;-74
2022/06/13 10:39:12;;;;;;;7.75;2.80;;;;;;;;;;4974360;28;20046;-74
2022/06/13 10:41:41;;;;;;;4.25;2.30;;;;;;;;;;4973315;28;20133;-74
2022/06/13 10:44:08;;;;;;;4.13;2.47;;;;;;;;;;5015170;28;20049;-74
2022/06/13 10:46:34;;;;;;;5.88;3.25;;;;;;;;;;5054284;28;20044;-74
2022/06/13 10:49:08;;;;;;;4.82;2.40;;;;;;;;;;5055604;28;20041;-75
2022/06/13 10:51:35;;;;;;;6.93;2.40;;;;;;;;;;5055600;28;20041;-74
2022/06/13 10:54:20;;;;;;;5.53;2.30;;;;;;;;;;5054340;28;20049;-75
2022/06/13 10:56:49;;;;;;;6.57;2.25;;;;;;;;;;5053985;28;20037;-74
2022/06/13 10:59:23;;;;;;;2.90;2.08;;;;;;;;;;5055197;28;20530;-73
2022/06/13 11:02:00;;;;;;;4.95;2.20;;;;;;;;;;5052104;28;20044;-74
2022/06/13 11:04:26;;;;;;;5.75;2.00;;;;;;;;;;5055873;28;20049;-74
2022/06/13 11:06:54;;;;;;;2.35;1.83;;;;;;;;;;5056369;28;20051;-74
2022/06/13 11:09:22;;;;;;;7.70;1.92;;;;;;;;;;5063139;28;20717;-75
2022/06/13 11:11:53;;;;;;;5.13;2.10;;;;;;;;;;5065320;28;20051;-75
2022/06/13 11:14:19;;;;;;;;;;;;;;;;;;5059421;28;20045;-75
2022/06/13 11:22:46;;;;;;;4.07;2.22;;;;;;;;;;5066995;28;20170;-75
2022/06/13 11:25:18;;;;;;;5.65;2.28;;;;;;;;;;5055939;28;20045;-75
2022/06/13 11:27:46;;;;;;;4.78;1.83;;;;;;;;;;5060675;28;20041;-75
2022/06/13 11:30:18;;;;;;;3.60;1.90;;;;;;;;;;5076912;28;20044;-76
2022/06/13 11:33:02;;;;;;;6.18;2.20;;;;;;;;;;5072236;28;20106;-75
2022/06/13 11:35:36;;;;;;;4.82;2.20;;;;;;;;;;5073999;28;20060;-75
2022/06/13 11:38:16;;;;;;;6.65;2.13;;;;;;;;;;5065102;28;20056;-75
2022/06/13 11:40:43;;;;;;;6.97;2.38;;;;;;;;;;5067251;28;20045;-74
2022/06/13 11:43:24;;;;;;;5.70;2.70;;;;;;;;;;5065865;28;20040;-74
2022/06/13 11:45:50;;;;;;;;;;;;;;;;;;5076906;28;20044;-74
2022/06/13 11:48:16;;;;;;;7.10;2.70;;;;;;;;;;5076349;28;19915;-74
2022/06/13 11:50:43;;;;;;;5.72;2.65;;;;;;;;;;5076478;28;20072;-74
2022/06/13 11:55:59;;;;;;;6.63;2.85;;;;;;;;;;5060821;28;20392;-74
2022/06/13 11:58:28;;;;;;;4.38;2.58;;;;;;;;;;5066263;28;20040;-74
2022/06/13 12:01:01;;;;;;;5.22;2.63;;;;;;;;;;5068771;28;20052;-74
2022/06/13 12:03:27;;;;;;;7.25;3.10;;;;;;;;;;5066105;28;20133;-74
2022/06/13 12:05:59;;;;;;;4.32;2.47;;;;;;;;;;5062305;28;20124;-74
2022/06/13 12:08:29;;;;;;;4.28;2.72;;;;;;;;;;5067796;28;20128;-74
2022/06/13 12:11:00;;;;;;;8.30;2.95;;;;;;;;;;5055191;28;20041;-74
2022/06/13 12:13:28;;;;;;;4.95;2.35;;;;;;;;;;5056407;28;20069;-74
2022/06/13 12:16:13;;;;;;;3.70;2.17;;;;;;;;;;5056123;28;20423;-74
2022/06/13 12:18:49;;;;;;;4.53;2.70;;;;;;;;;;5063598;28;20068;-74
2022/06/13 12:21:24;;;;;;;7.53;2.42;;;;;;;;;;5071873;28;20048;-74
2022/06/13 12:24:01;;;;;;;5.88;2.28;;;;;;;;;;5070524;28;20159;-74
2022/06/13 12:26:38;;;;;;;3.35;2.08;;;;;;;;;;5063402;28;20040;-74
2022/06/13 12:29:22;;;;;;;9.30;2.20;;;;;;;;;;5051778;28;20446;-74
2022/06/13 12:31:53;;;;;;;6.55;2.30;;;;;;;;;;5055956;28;20110;-74
2022/06/13 12:34:25;;;;;;;8.68;2.28;;;;;;;;;;5059113;28;20126;-74
2022/06/13 12:37:01;;;;;;;4.13;2.05;;;;;;;;;;5062006;28;20072;-73
2022/06/13 12:39:37;;;;;;;3.95;2.05;;;;;;;;;;5054459;28;20051;-74
2022/06/13 12:42:16;;;;;;;3.72;2.08;;;;;;;;;;5060607;28;20067;-74
2022/06/13 12:44:51;;;;;;;4.50;1.92;;;;;;;;;;5062343;28;20094;-74
2022/06/13 12:47:39;;;;;;;5.82;2.10;;;;;;;;;;5054651;28;20037;-74
2022/06/13 12:50:08;;;;;;;3.95;1.85;;;;;;;;;;5071297;28;20518;-74
2022/06/13 12:52:55;;;;;;;4.70;2.00;;;;;;;;;;5060834;28;20115;-73
2022/06/13 12:55:30;;;;;;;6.47;1.98;;;;;;;;;;5060449;28;20123;-74
2022/06/13 12:58:15;;;;;;;2.40;1.70;;;;;;;;;;5056358;28;20037;-74
2022/06/13 13:00:50;;;;;;;4.72;1.90;;;;;;;;;;5054423;28;20079;-73
2022/06/13 13:03:32;;;;;;;4.55;1.80;;;;;;;;;;5054948;28;20091;-74
2022/06/13 13:06:00;;;;;;;3.83;2.05;;;;;;;;;;5054984;28;20198;-74
2022/06/13 13:08:35;;;;;;;2.70;1.80;;;;;;;;;;5054946;28;20048;-74
2022/06/13 13:11:21;;;;;;;8.95;2.65;;;;;;;;;;5055464;28;20044;-74
2022/06/13 13:14:06;;;;;;;3.05;1.80;;;;;;;;;;5054566;28;20044;-74
2022/06/13 13:16:35;;;;;;;2.85;1.80;;;;;;;;;;5054854;28;20505;-74
2022/06/13 13:19:07;;;;;;;4.57;1.60;;;;;;;;;;5054214;28;20063;-74
2022/06/13 13:21:37;;;;;;;4.32;1.80;;;;;;;;;;5054705;28;20057;-74
2022/06/13 13:24:23;;;;;;;5.53;1.60;;;;;;;;;;5055057;28;20083;-74
2022/06/13 13:27:07;;;;;;;4.78;2.00;;;;;;;;;;5054471;28;20068;-74
2022/06/13 13:29:51;;;;;;;4.95;1.92;;;;;;;;;;5054607;28;20036;-74
2022/06/13 13:32:28;;;;;;;5.78;2.00;;;;;;;;;;5054433;28;20059;-74
2022/06/13 13:35:06;;;;;;;4.38;1.70;;;;;;;;;;5054257;28;20122;-74
2022/06/13 13:37:41;;;;;;;3.95;1.60;;;;;;;;;;5055201;28;20178;-74
2022/06/13 13:40:14;;;;;;;4.85;1.95;;;;;;;;;;5054577;28;20139;-73
2022/06/13 13:42:51;;;;;;;2.35;1.60;;;;;;;;;;5055459;28;20033;-74
2022/06/13 13:45:17;;;;;;;4.68;2.28;;;;;;;;;;5054364;28;20056;-74
2022/06/13 13:47:43;;;;;;;5.55;2.35;;;;;;;;;;5057320;28;20070;-74
2022/06/13 13:50:16;;;;;;;4.15;1.70;;;;;;;;;;5051482;28;20530;-74
2022/06/13 13:52:44;;;;;;;5.15;1.90;;;;;;;;;;5072403;28;20049;-74
2022/06/13 13:55:14;;;;;;;2.80;1.70;;;;;;;;;;5071740;28;20044;-75
2022/06/13 13:57:53;;;;;;;2.97;1.80;;;;;;;;;;5060320;28;20033;-75
2022/06/13 14:00:22;;;;;;;2.95;1.63;;;;;;;;;;5062326;28;20132;-74
2022/06/13 14:02:52;;;;;;;3.65;1.90;;;;;;;;;;5053767;28;20067;-74
2022/06/13 14:05:27;;;;;;;4.15;1.63;;;;;;;;;;5053466;28;20049;-74
2022/06/13 14:08:12;;;;;;;4.20;1.77;;;;;;;;;;5059961;28;20052;-74
2022/06/13 14:10:44;;;;;;;5.25;1.92;;;;;;;;;;5073459;28;20044;-74
2022/06/13 14:13:20;;;;;;;5.82;2.13;;;;;;;;;;5067671;28;20191;-75
2022/06/13 14:15:49;;;;;;;3.88;1.70;;;;;;;;;;5067292;28;20044;-75
2022/06/13 14:18:29;;;;;;;3.08;1.88;;;;;;;;;;5064374;28;20549;-75
2022/06/13 14:20:56;;;;;;;3.27;1.80;;;;;;;;;;5053997;28;20507;-74
2022/06/13 14:23:32;;;;;;;5.85;1.92;;;;;;;;;;5068330;28;20298;-75
2022/06/13 14:25:58;;;;;;;4.05;2.05;;;;;;;;;;5063600;28;20624;-75
2022/06/13 14:28:24;;;;;;;3.90;1.80;;;;;;;;;;5071622;28;20071;-75
2022/06/13 14:31:08;;;;;;;4.80;1.67;;;;;;;;;;5071796;28;20553;-74
2022/06/13 14:36:50;;;;;;;5.25;1.88;;;;;;;;;;5057625;28;20078;-75
2022/06/13 14:39:28;;;;;;;4.53;2.15;;;;;;;;;;5069703;28;20054;-74
2022/06/13 14:42:01;;;;;;;3.20;1.48;;;;;;;;;;5064384;28;20053;-74
2022/06/13 14:44:30;;;;;;;4.75;1.90;;;;;;;;;;5070242;28;20068;-75
2022/06/13 14:47:16;;;;;;;3.88;2.10;;;;;;;;;;5063090;28;20049;-74
2022/06/13 14:49:42;;;;;;;5.18;2.20;;;;;;;;;;5073719;28;20038;-74
2022/06/13 14:52:18;;;;;;;3.95;1.90;;;;;;;;;;5057829;28;20498;-73
2022/06/13 14:54:49;;;;;;;3.42;1.92;;;;;;;;;;5076559;28;20059;-73
2022/06/13 14:57:15;;;;;;;;;;;;;;;;;;5074660;28;20060;-74
2022/06/13 15:00:00;;;;;;;5.85;2.00;;;;;;;;;;5071058;28;19948;-74
2022/06/13 15:02:27;;;;;;;4.00;1.70;;;;;;;;;;5068751;28;20044;-74
2022/06/13 15:05:00;;;;;;;3.03;1.80;;;;;;;;;;5073607;28;20059;-73
2022/06/13 15:07:33;;;;;;;3.53;1.92;;;;;;;;;;5062435;28;20096;-73
2022/06/13 15:10:04;;;;;;;3.08;1.92;;;;;;;;;;5076481;28;20049;-73
2022/06/13 15:12:31;;;;;;;3.15;1.92;;;;;;;;;;5058963;28;20032;-73
2022/06/13 15:15:03;;;;;;;3.55;1.80;;;;;;;;;;5063596;28;20066;-73
2022/06/13 15:17:33;;;;;;;7.07;2.08;;;;;;;;;;5063762;28;20056;-73
2022/06/13 15:20:00;;;;;;;4.22;2.08;;;;;;;;;;5075573;28;20036;-74
2022/06/13 15:22:32;;;;;;;5.65;2.25;;;;;;;;;;5073268;28;20042;-74
2022/06/13 15:25:00;;;;;;;5.72;2.10;;;;;;;;;;5059656;28;20048;-74
2022/06/13 15:27:26;;;;;;;9.38;2.28;;;;;;;;;;5065501;28;20040;-74
2022/06/13 15:29:58;;;;;;;3.15;2.08;;;;;;;;;;5058007;28;20043;-74
2022/06/13 15:32:32;;;;;;;3.67;2.20;;;;;;;;;;5061903;28;20048;-74